createdAt,value
2018-09-06T00:01:11.210Z,5.57
2018-09-06T00:03:39.877Z,9.73
2018-09-06T00:06:08.561Z,3.93
2018-09-06T00:08:37.352Z,6.57
2018-09-06T00:11:06.036Z,5.80
2018-09-06T00:13:34.758Z,5.83
2018-09-06T00:16:03.431Z,9.07
2018-09-06T00:18:32.118Z,9.73
2018-09-06T00:21:00.761Z,8.07
2018-09-06T00:23:29.516Z,9.80
2018-09-06T00:25:58.236Z,8.67
2018-09-06T00:28:26.910Z,9.33
2018-09-06T00:30:55.623Z,5.27
2018-09-06T00:33:24.279Z,7.17
2018-09-06T00:35:52.980Z,6.47
2018-09-06T00:38:21.692Z,7.07
2018-09-06T00:40:50.432Z,4.47
2018-09-06T00:43:19.160Z,8.97
2018-09-06T00:45:47.879Z,4.77
2018-09-06T00:48:16.593Z,5.93
2018-09-06T00:50:45.354Z,6.60
2018-09-06T00:53:14.096Z,7.33
2018-09-06T00:55:42.796Z,4.17
2018-09-06T00:58:11.496Z,6.67
2018-09-06T01:00:40.252Z,6.83
2018-09-06T01:03:08.959Z,5.57
2018-09-06T01:05:37.727Z,6.20
2018-09-06T01:08:06.460Z,8.93
2018-09-06T01:10:35.204Z,7.40
2018-09-06T01:13:03.897Z,6.30
2018-09-06T01:15:32.619Z,6.80
2018-09-06T01:18:01.374Z,6.77
2018-09-06T01:20:30.141Z,4.40
2018-09-06T01:22:58.793Z,5.57
2018-09-06T01:25:31.614Z,6.23
2018-09-06T01:28:00.304Z,6.73
2018-09-06T01:30:29.058Z,4.97
2018-09-06T01:32:57.715Z,3.17
2018-09-06T01:35:26.406Z,5.07
2018-09-06T01:37:55.124Z,4.77
2018-09-06T01:40:23.868Z,6.77
2018-09-06T01:42:52.542Z,8.40
2018-09-06T01:45:21.234Z,4.43
2018-09-06T01:47:49.943Z,5.17
2018-09-06T01:50:18.625Z,6.97
2018-09-06T01:52:47.368Z,4.63
2018-09-06T01:55:16.057Z,3.93
2018-09-06T01:57:44.731Z,5.63
2018-09-06T02:00:13.407Z,5.47
2018-09-06T02:02:42.082Z,4.50
2018-09-06T02:05:10.872Z,3.10
2018-09-06T02:07:39.558Z,8.33
2018-09-06T02:10:08.251Z,4.20
2018-09-06T02:12:36.946Z,6.50
2018-09-06T02:15:05.651Z,4.40
2018-09-06T02:17:34.392Z,7.30
2018-09-06T02:20:03.093Z,5.17
2018-09-06T02:22:31.805Z,2.67
2018-09-06T02:25:00.532Z,5.23
2018-09-06T02:27:29.209Z,5.53
2018-09-06T02:29:57.897Z,4.63
2018-09-06T02:32:27.560Z,4.57
2018-09-06T02:34:56.260Z,6.17
2018-09-06T02:37:24.948Z,4.37
2018-09-06T02:39:53.625Z,5.53
2018-09-06T02:42:22.476Z,5.07
2018-09-06T02:44:51.195Z,5.03
2018-09-06T02:47:19.879Z,6.13
2018-09-06T02:49:53.640Z,7.77
2018-09-06T02:52:22.440Z,4.03
2018-09-06T02:54:51.108Z,4.30
2018-09-06T02:57:19.788Z,4.87
2018-09-06T02:59:48.459Z,3.90
2018-09-06T03:02:17.204Z,8.17
2018-09-06T03:04:45.912Z,5.77
2018-09-06T03:07:14.580Z,7.40
2018-09-06T03:09:43.293Z,4.30
2018-09-06T03:12:12.125Z,6.80
2018-09-06T03:14:40.847Z,7.43
2018-09-06T03:17:09.557Z,4.03
2018-09-06T03:19:38.359Z,5.63
2018-09-06T03:22:07.020Z,5.10
2018-09-06T03:24:35.746Z,10.43
2018-09-06T03:27:04.413Z,6.03
2018-09-06T03:29:33.088Z,5.33
2018-09-06T03:32:01.767Z,4.50
2018-09-06T03:34:30.469Z,3.63
2018-09-06T03:36:59.195Z,5.80
2018-09-06T03:39:27.875Z,6.27
2018-09-06T03:41:56.571Z,3.13
2018-09-06T03:44:25.245Z,5.03
2018-09-06T03:46:53.944Z,6.97
2018-09-06T03:49:22.621Z,5.70
2018-09-06T03:51:51.378Z,6.97
2018-09-06T03:54:20.076Z,5.63
2018-09-06T03:56:48.800Z,5.80
2018-09-06T03:59:17.482Z,6.60
2018-09-06T04:01:46.145Z,6.43
2018-09-06T04:04:14.804Z,4.47
2018-09-06T04:06:43.491Z,4.40
2018-09-06T04:09:12.322Z,5.67
2018-09-06T04:11:41.158Z,4.83
2018-09-06T04:14:09.885Z,4.30
2018-09-06T04:16:38.616Z,4.97
2018-09-06T04:19:07.628Z,8.97
2018-09-06T04:21:36.346Z,5.30
2018-09-06T04:24:05.039Z,4.27
2018-09-06T04:26:33.715Z,6.10
2018-09-06T04:29:02.420Z,5.53
2018-09-06T04:31:31.264Z,7.40
2018-09-06T04:34:00.012Z,5.63
2018-09-06T04:36:28.732Z,6.13
2018-09-06T04:38:57.486Z,5.43
2018-09-06T04:41:26.243Z,4.30
2018-09-06T04:43:55.031Z,5.07
2018-09-06T04:46:23.749Z,4.53
2018-09-06T04:48:52.463Z,4.43
2018-09-06T04:51:21.200Z,6.37
2018-09-06T04:53:49.890Z,6.33
2018-09-06T04:56:18.572Z,7.43
2018-09-06T04:58:47.361Z,9.13
2018-09-06T05:01:16.033Z,6.10
2018-09-06T05:03:44.695Z,6.77
2018-09-06T05:06:13.567Z,5.50
2018-09-06T05:08:42.254Z,6.80
2018-09-06T05:11:11.008Z,6.57
2018-09-06T05:13:39.720Z,8.57
2018-09-06T05:16:08.418Z,7.03
2018-09-06T05:18:37.208Z,8.83
2018-09-06T05:21:05.967Z,6.43
2018-09-06T05:23:34.643Z,4.70
2018-09-06T05:26:03.327Z,6.47
2018-09-06T05:28:32.005Z,4.90
2018-09-06T05:31:00.656Z,7.80
2018-09-06T05:33:29.361Z,6.73
2018-09-06T05:35:58.715Z,4.37
2018-09-06T05:38:27.402Z,6.07
2018-09-06T05:40:56.093Z,4.03
2018-09-06T05:43:24.856Z,5.17
2018-09-06T05:45:53.536Z,4.70
2018-09-06T05:48:22.284Z,6.67
2018-09-06T05:50:51.018Z,5.07
2018-09-06T05:53:20.164Z,6.87
2018-09-06T05:55:48.944Z,6.40
2018-09-06T05:58:17.669Z,6.30
2018-09-06T06:00:48.481Z,6.83
2018-09-06T06:03:17.311Z,5.87
2018-09-06T06:05:45.984Z,6.67
2018-09-06T06:08:25.765Z,6.17
2018-09-06T06:10:54.424Z,6.57
2018-09-06T06:13:23.222Z,5.50
2018-09-06T06:15:51.989Z,4.67
2018-09-06T06:18:20.673Z,4.67
2018-09-06T06:20:49.405Z,5.13
2018-09-06T06:23:18.107Z,8.23
2018-09-06T06:25:46.817Z,6.43
2018-09-06T06:28:15.852Z,6.60
2018-09-06T06:30:44.587Z,8.73
2018-09-06T06:33:13.269Z,5.40
2018-09-06T06:35:41.965Z,4.30
2018-09-06T06:38:10.660Z,4.97
2018-09-06T06:40:39.352Z,7.90
2018-09-06T06:43:08.085Z,7.10
2018-09-06T06:45:36.784Z,4.47
2018-09-06T06:48:05.521Z,6.70
2018-09-06T06:50:34.276Z,8.07
2018-09-06T06:53:02.968Z,6.07
2018-09-06T06:55:31.664Z,6.27
2018-09-06T06:58:00.340Z,12.13
2018-09-06T07:00:29.173Z,7.73
2018-09-06T07:03:06.689Z,8.63
2018-09-06T07:05:35.380Z,8.07
2018-09-06T07:08:04.085Z,8.97
2018-09-06T07:10:32.787Z,12.80
2018-09-06T07:13:01.480Z,5.53
2018-09-06T07:15:30.139Z,6.60
2018-09-06T07:17:58.832Z,10.43
2018-09-06T07:20:27.472Z,7.33
2018-09-06T07:22:56.189Z,10.83
2018-09-06T07:25:24.884Z,7.97
2018-09-06T07:27:53.531Z,6.83
2018-09-06T07:30:22.321Z,9.77
2018-09-06T07:32:51.002Z,7.93
2018-09-06T07:35:20.931Z,8.97
2018-09-06T07:37:49.687Z,9.60
2018-09-06T07:40:18.361Z,10.37
2018-09-06T07:42:47.103Z,7.93
2018-09-06T07:45:15.799Z,12.57
2018-09-06T07:47:44.509Z,13.60
2018-09-06T07:50:13.700Z,13.37
2018-09-06T07:52:42.384Z,5.70
2018-09-06T07:55:11.091Z,9.93
2018-09-06T07:57:40.558Z,7.07
2018-09-06T08:00:09.281Z,7.50
2018-09-06T08:02:38.583Z,4.27
2018-09-06T08:05:07.364Z,7.77
2018-09-06T08:07:36.046Z,2.63
2018-09-06T08:10:04.831Z,3.17
2018-09-06T08:12:33.511Z,4.43
2018-09-06T08:15:02.192Z,5.40
2018-09-06T08:17:30.851Z,2.97
2018-09-06T08:19:59.587Z,3.97
2018-09-06T08:22:28.256Z,2.60
2018-09-06T08:24:56.920Z,2.97
2018-09-06T08:27:26.235Z,5.90
2018-09-06T08:29:54.895Z,4.13
2018-09-06T08:32:23.676Z,2.43
2018-09-06T08:35:03.175Z,5.37
2018-09-06T08:37:31.931Z,4.47
2018-09-06T08:40:00.620Z,5.13
2018-09-06T08:42:29.413Z,6.20
2018-09-06T08:44:58.113Z,2.20
2018-09-06T08:47:26.881Z,8.53
2018-09-06T08:49:55.495Z,7.27
2018-09-06T08:52:24.366Z,3.83
2018-09-06T08:54:53.039Z,5.30
2018-09-06T08:57:21.876Z,6.13
2018-09-06T08:59:50.604Z,5.33
2018-09-06T09:02:19.466Z,5.77
2018-09-06T09:04:48.047Z,3.87
2018-09-06T09:07:16.817Z,6.07
2018-09-06T09:09:45.513Z,6.13
2018-09-06T09:12:14.249Z,6.93
2018-09-06T09:14:42.973Z,6.03
2018-09-06T09:17:11.653Z,6.27
2018-09-06T09:19:40.412Z,8.80
2018-09-06T09:22:09.215Z,8.07
2018-09-06T09:24:37.885Z,8.30
2018-09-06T09:27:06.980Z,10.67
2018-09-06T09:29:35.715Z,6.43
2018-09-06T09:32:04.419Z,5.97
2018-09-06T09:34:33.156Z,5.37
2018-09-06T09:37:01.855Z,7.10
2018-09-06T09:39:30.601Z,8.03
2018-09-06T09:41:59.327Z,4.37
2018-09-06T09:44:28.026Z,5.57
2018-09-06T09:49:24.845Z,7.13
2018-09-06T09:51:53.580Z,5.83
2018-09-06T09:54:22.332Z,7.40
2018-09-06T09:56:51.169Z,8.33
2018-09-06T09:59:19.831Z,10.87
2018-09-06T10:01:53.756Z,9.17
2018-09-06T10:04:27.629Z,7.80
2018-09-06T10:07:01.387Z,7.23
2018-09-06T10:09:30.106Z,9.30
2018-09-06T10:11:58.883Z,7.63
2018-09-06T10:14:27.640Z,9.63
2018-09-06T10:16:56.349Z,5.30
2018-09-06T10:19:25.077Z,8.40
2018-09-06T10:21:53.787Z,2.83
2018-09-06T10:24:22.555Z,6.77
2018-09-06T10:26:51.428Z,3.87
2018-09-06T10:29:20.291Z,2.43
2018-09-06T10:31:48.998Z,4.43
2018-09-06T10:34:17.795Z,5.63
2018-09-06T10:36:46.541Z,8.00
2018-09-06T10:39:15.334Z,8.63
2018-09-06T10:41:44.046Z,7.57
2018-09-06T10:44:12.797Z,2.83
2018-09-06T10:46:41.498Z,6.43
2018-09-06T10:49:10.220Z,10.53
2018-09-06T10:51:38.898Z,7.73
2018-09-06T10:54:07.592Z,4.37
2018-09-06T10:56:36.332Z,11.73
2018-09-06T10:59:05.058Z,7.30
2018-09-06T11:01:33.826Z,4.83
2018-09-06T11:04:02.524Z,6.63
2018-09-06T11:06:31.214Z,7.33
2018-09-06T11:08:59.954Z,4.93
2018-09-06T11:11:28.620Z,7.20
2018-09-06T11:13:57.306Z,9.00
2018-09-06T11:16:26.080Z,10.60
2018-09-06T11:18:54.816Z,6.07
2018-09-06T11:21:24.292Z,2.67
2018-09-06T11:23:52.975Z,4.97
2018-09-06T11:26:22.296Z,6.97
2018-09-06T11:28:50.977Z,13.87
2018-09-06T11:31:19.695Z,5.50
2018-09-06T11:33:48.416Z,7.83
2018-09-06T11:36:17.088Z,7.63
2018-09-06T11:38:45.828Z,6.83
2018-09-06T11:41:14.518Z,7.03
2018-09-06T11:43:43.326Z,8.30
2018-09-06T11:46:12.012Z,6.37
2018-09-06T11:48:40.736Z,5.57
2018-09-06T11:51:09.800Z,8.30
2018-09-06T11:53:38.593Z,6.73
2018-09-06T11:56:07.578Z,3.97
2018-09-06T11:58:36.993Z,6.93
2018-09-06T12:01:05.790Z,7.37
2018-09-06T12:03:34.580Z,7.27
2018-09-06T12:06:03.301Z,6.57
2018-09-06T12:08:32.030Z,7.10
2018-09-06T12:11:00.745Z,6.63
2018-09-06T12:13:29.443Z,10.07
2018-09-06T12:15:58.139Z,5.13
2018-09-06T12:18:27.008Z,4.83
2018-09-06T12:20:55.752Z,9.90
2018-09-06T12:23:24.477Z,9.10
2018-09-06T12:25:53.318Z,6.77
2018-09-06T12:28:22.427Z,6.43
2018-09-06T12:30:51.402Z,7.00
2018-09-06T12:33:21.473Z,5.50
2018-09-06T12:35:50.678Z,8.07
2018-09-06T12:38:19.697Z,9.93
2018-09-06T12:40:48.499Z,4.77
2018-09-06T12:43:17.788Z,6.77
2018-09-06T12:45:46.616Z,4.00
2018-09-06T12:48:15.380Z,6.87
2018-09-06T12:50:44.180Z,5.60
2018-09-06T12:53:12.944Z,7.90
2018-09-06T12:55:41.750Z,6.73
2018-09-06T12:58:10.563Z,7.57
2018-09-06T13:00:39.283Z,8.53
2018-09-06T13:03:08.082Z,5.90
2018-09-06T13:05:37.005Z,7.70
2018-09-06T13:08:05.942Z,12.80
2018-09-06T13:10:34.676Z,9.37
2018-09-06T13:13:03.440Z,7.20
2018-09-06T13:15:32.362Z,7.80
2018-09-06T13:18:01.192Z,7.53
2018-09-06T13:20:30.020Z,7.20
2018-09-06T13:22:59.766Z,4.23
2018-09-06T13:25:28.592Z,6.33
2018-09-06T13:27:57.409Z,6.37
2018-09-06T13:30:26.168Z,6.27
2018-09-06T13:32:54.898Z,2.73
2018-09-06T13:35:23.792Z,7.10
2018-09-06T13:37:52.699Z,9.47
2018-09-06T13:40:21.527Z,10.70
2018-09-06T13:42:50.223Z,8.03
2018-09-06T13:45:18.964Z,13.27
2018-09-06T13:47:47.668Z,14.53
2018-09-06T13:50:16.342Z,11.73
2018-09-06T13:52:45.046Z,11.03
2018-09-06T13:55:13.716Z,13.30
2018-09-06T13:57:42.412Z,16.93
2018-09-06T14:00:11.944Z,12.77
2018-09-06T14:02:41.511Z,9.40
2018-09-06T14:05:10.396Z,14.60
2018-09-06T14:07:39.076Z,11.90
2018-09-06T14:10:07.856Z,6.97
2018-09-06T14:12:36.525Z,16.43
2018-09-06T14:15:05.296Z,14.03
2018-09-06T14:17:34.006Z,18.37
2018-09-06T14:20:02.697Z,13.87
2018-09-06T14:22:31.446Z,14.43
2018-09-06T14:25:00.139Z,14.13
2018-09-06T14:27:28.828Z,11.07
2018-09-06T14:29:57.529Z,14.17
2018-09-06T14:32:26.199Z,15.53
2018-09-06T14:34:54.919Z,11.70
2018-09-06T14:37:23.605Z,7.20
2018-09-06T14:39:52.277Z,16.20
2018-09-06T14:42:21.011Z,11.27
2018-09-06T14:44:49.783Z,13.40
2018-09-06T14:47:18.467Z,16.73
2018-09-06T14:49:47.220Z,8.73
2018-09-06T14:52:16.084Z,11.70
2018-09-06T14:54:44.799Z,12.63
2018-09-06T14:57:13.643Z,10.67
2018-09-06T14:59:42.463Z,11.37
2018-09-06T15:02:11.348Z,13.60
2018-09-06T15:04:40.147Z,12.47
2018-09-06T15:07:08.849Z,11.53
2018-09-06T15:09:38.480Z,6.23
2018-09-06T15:12:07.573Z,11.00
2018-09-06T15:14:36.268Z,8.80
2018-09-06T15:17:05.168Z,14.03
2018-09-06T15:19:33.982Z,15.27
2018-09-06T15:22:02.743Z,11.83
2018-09-06T15:24:31.475Z,11.67
2018-09-06T15:27:00.275Z,7.43
2018-09-06T15:29:28.995Z,17.10
2018-09-06T15:31:58.035Z,13.80
2018-09-06T15:34:26.769Z,15.70
2018-09-06T15:36:55.554Z,13.20
2018-09-06T15:39:24.387Z,9.47
2018-09-06T15:41:53.146Z,17.03
2018-09-06T15:44:22.601Z,14.33
2018-09-06T15:46:51.408Z,14.60
2018-09-06T15:49:22.148Z,11.40
2018-09-06T15:51:50.910Z,18.50
2018-09-06T15:54:19.593Z,16.13
2018-09-06T15:56:48.277Z,15.37
2018-09-06T15:59:17.017Z,8.70
2018-09-06T16:01:45.841Z,12.00
2018-09-06T16:04:14.730Z,11.57
2018-09-06T16:06:43.480Z,10.80
2018-09-06T16:09:12.181Z,16.03
2018-09-06T16:11:40.865Z,17.87
2018-09-06T16:14:09.735Z,16.73
2018-09-06T16:16:38.589Z,22.00
2018-09-06T16:19:07.279Z,19.23
2018-09-06T16:21:35.977Z,12.73
2018-09-06T16:24:04.849Z,10.60
2018-09-06T16:26:33.608Z,15.40
2018-09-06T16:29:02.313Z,17.30
2018-09-06T16:31:31.261Z,13.70
2018-09-06T16:33:59.951Z,18.03
2018-09-06T16:36:28.659Z,12.30
2018-09-06T16:38:57.390Z,13.37
2018-09-06T16:41:26.128Z,15.53
2018-09-06T16:43:54.847Z,18.87
2018-09-06T16:46:23.639Z,19.30
2018-09-06T16:48:52.656Z,12.53
2018-09-06T16:51:21.431Z,18.50
2018-09-06T16:53:50.160Z,14.10
2018-09-06T16:56:19.630Z,23.53
2018-09-06T16:58:48.393Z,17.00
2018-09-06T17:01:17.310Z,4.70
2018-09-06T17:03:46.237Z,2.77
2018-09-06T17:06:14.957Z,4.77
2018-09-06T17:08:43.828Z,2.93
2018-09-06T17:11:12.708Z,2.57
2018-09-06T17:13:41.557Z,5.47
2018-09-06T17:16:10.364Z,3.87
2018-09-06T17:18:39.217Z,5.33
2018-09-06T17:21:08.071Z,7.87
2018-09-06T17:23:36.961Z,7.90
2018-09-06T17:26:05.770Z,9.97
2018-09-06T17:28:34.525Z,10.17
2018-09-06T17:31:03.320Z,9.50
2018-09-06T17:33:32.292Z,8.03
2018-09-06T17:36:01.116Z,10.80
2018-09-06T17:38:29.972Z,11.00
2018-09-06T17:40:58.775Z,9.30
2018-09-06T17:43:27.465Z,11.03
2018-09-06T17:45:56.252Z,10.77
2018-09-06T17:48:25.045Z,4.53
2018-09-06T17:50:53.969Z,6.97
2018-09-06T17:53:22.876Z,4.80
2018-09-06T17:55:51.722Z,7.57
2018-09-06T17:58:20.555Z,3.60
2018-09-06T18:01:52.208Z,3.77
2018-09-06T18:04:20.923Z,5.17
2018-09-06T18:06:50.005Z,5.03
2018-09-06T18:09:18.986Z,5.93
2018-09-06T18:11:47.902Z,2.97
2018-09-06T18:14:16.749Z,6.70
2018-09-06T18:16:45.695Z,8.03
2018-09-06T18:19:14.631Z,3.47
2018-09-06T18:21:43.425Z,6.57
2018-09-06T18:24:12.537Z,5.23
2018-09-06T18:26:41.407Z,5.70
2018-09-06T18:29:10.153Z,3.90
2018-09-06T18:31:38.893Z,2.83
2018-09-06T18:34:07.765Z,2.73
2018-09-06T18:36:36.632Z,4.47
2018-09-06T18:39:07.026Z,3.93
2018-09-06T18:41:35.899Z,3.90
2018-09-06T18:44:04.882Z,4.50
2018-09-06T18:46:33.536Z,4.70
2018-09-06T18:49:02.268Z,3.83
2018-09-06T18:51:30.981Z,5.47
2018-09-06T18:53:59.742Z,2.70
2018-09-06T18:56:28.508Z,4.47
2018-09-06T18:58:57.219Z,2.00
2018-09-06T19:01:25.887Z,4.97
2018-09-06T19:03:54.539Z,3.00
2018-09-06T19:06:23.299Z,3.67
2018-09-06T19:08:51.976Z,1.43
2018-09-06T19:11:21.129Z,2.47
2018-09-06T19:13:49.873Z,3.57
2018-09-06T19:16:18.653Z,2.77
2018-09-06T19:18:47.313Z,5.63
2018-09-06T19:21:16.009Z,1.83
2018-09-06T19:23:44.679Z,2.33
2018-09-06T19:26:13.413Z,4.13
2018-09-06T19:28:42.062Z,3.60
2018-09-06T19:31:10.805Z,2.00
2018-09-06T19:33:39.504Z,3.43
2018-09-06T19:36:08.326Z,3.30
2018-09-06T19:38:36.977Z,2.57
2018-09-06T19:41:05.751Z,1.27
2018-09-06T19:43:34.429Z,4.17
2018-09-06T19:46:03.125Z,5.77
2018-09-06T19:48:31.807Z,4.20
2018-09-06T19:51:00.521Z,3.53
2018-09-06T19:53:29.265Z,3.43
2018-09-06T19:55:57.961Z,3.60
2018-09-06T19:58:26.612Z,1.27
2018-09-06T20:00:55.287Z,8.10
2018-09-06T20:03:24.049Z,2.50
2018-09-06T20:05:52.735Z,5.77
2018-09-06T20:08:21.563Z,3.83
2018-09-06T20:10:50.253Z,2.20
2018-09-06T20:13:19.020Z,2.87
2018-09-06T20:15:47.840Z,2.87
2018-09-06T20:18:16.542Z,2.60
2018-09-06T20:20:45.240Z,2.00
2018-09-06T20:23:13.888Z,3.17
2018-09-06T20:25:42.669Z,3.33
2018-09-06T20:28:11.420Z,2.30
2018-09-06T20:30:40.024Z,4.27
2018-09-06T20:33:08.720Z,3.53
2018-09-06T20:35:37.384Z,3.37
2018-09-06T20:38:06.079Z,2.97
2018-09-06T20:40:34.759Z,2.37
2018-09-06T20:43:03.653Z,2.63
2018-09-06T20:45:32.365Z,4.77
2018-09-06T20:48:01.069Z,3.87
2018-09-06T20:50:29.769Z,3.70
2018-09-06T20:52:58.469Z,3.67
2018-09-06T20:55:27.159Z,4.20
2018-09-06T20:57:55.831Z,3.00
2018-09-06T21:00:24.495Z,5.37
2018-09-06T21:02:53.486Z,5.53
2018-09-06T21:05:22.344Z,3.80
2018-09-06T21:07:51.084Z,4.30
2018-09-06T21:10:19.818Z,3.53
2018-09-06T21:12:48.511Z,3.47
2018-09-06T21:15:17.200Z,3.03
2018-09-06T21:17:45.906Z,5.07
2018-09-06T21:20:14.599Z,5.83
2018-09-06T21:22:43.292Z,5.17
2018-09-06T21:25:11.984Z,5.40
2018-09-06T21:27:40.696Z,6.20
2018-09-06T21:30:09.441Z,5.10
2018-09-06T21:32:38.071Z,4.73
2018-09-06T21:35:06.925Z,2.90
2018-09-06T21:37:36.105Z,7.47
2018-09-06T21:40:05.083Z,4.90
2018-09-06T21:42:33.759Z,3.60
2018-09-06T21:45:02.468Z,9.30
2018-09-06T21:47:31.148Z,5.90
2018-09-06T21:49:59.802Z,4.30
2018-09-06T21:52:28.475Z,5.63
2018-09-06T21:54:57.169Z,5.30
2018-09-06T21:57:25.883Z,7.73
2018-09-06T21:59:54.592Z,6.87
2018-09-06T22:02:28.518Z,7.33
2018-09-06T22:04:57.238Z,5.40
2018-09-06T22:07:26.723Z,7.87
2018-09-06T22:09:55.621Z,6.60
2018-09-06T22:12:24.476Z,5.37
2018-09-06T22:14:53.280Z,6.00
2018-09-06T22:17:22.160Z,6.23
2018-09-06T22:19:51.513Z,5.03
2018-09-06T22:22:20.377Z,5.33
2018-09-06T22:24:49.924Z,3.70
2018-09-06T22:27:19.380Z,5.07
2018-09-06T22:29:48.516Z,4.03
2018-09-06T22:32:17.367Z,5.37
2018-09-06T22:34:48.187Z,3.53
2018-09-06T22:37:16.889Z,4.77
2018-09-06T22:39:45.531Z,4.23
2018-09-06T22:42:14.252Z,4.83
2018-09-06T22:44:43.023Z,5.13
2018-09-06T22:47:11.759Z,5.07
2018-09-06T22:49:40.524Z,3.63
2018-09-06T22:52:09.415Z,4.07
2018-09-06T22:54:38.071Z,5.60
2018-09-06T22:57:07.515Z,6.20
2018-09-06T22:59:36.202Z,4.63
2018-09-06T23:02:04.872Z,5.60
2018-09-06T23:04:33.615Z,4.57
2018-09-06T23:07:02.395Z,4.53
2018-09-06T23:09:31.195Z,8.17
2018-09-06T23:12:00.579Z,2.83
2018-09-06T23:14:29.451Z,6.27
2018-09-06T23:16:58.616Z,6.63
2018-09-06T23:19:27.432Z,3.17
2018-09-06T23:21:56.219Z,5.57
2018-09-06T23:24:25.511Z,4.70
2018-09-06T23:26:54.187Z,5.93
2018-09-06T23:29:23.755Z,7.57
2018-09-06T23:31:53.118Z,5.07
2018-09-06T23:34:22.410Z,4.03
2018-09-06T23:36:51.187Z,5.87
2018-09-06T23:39:20.011Z,3.47
2018-09-06T23:41:49.613Z,4.27
2018-09-06T23:44:18.427Z,5.43
2018-09-06T23:46:47.900Z,4.73
2018-09-06T23:49:16.830Z,5.07
2018-09-06T23:51:45.521Z,2.40
2018-09-06T23:54:16.109Z,6.07
2018-09-06T23:56:45.401Z,3.70
2018-09-06T23:59:14.145Z,5.93
